createdAt,value
2019-03-19T00:03:10.170Z,72.30
2019-03-19T00:08:59.771Z,73.20
2019-03-19T00:11:41.224Z,72.40
2019-03-19T00:14:23.861Z,72.10
2019-03-19T00:17:08.697Z,72.00
2019-03-19T00:19:54.810Z,71.80
2019-03-19T00:22:36.350Z,71.40
2019-03-19T00:25:29.330Z,71.40
2019-03-19T00:28:02.367Z,72.00
2019-03-19T00:30:45.338Z,70.70
2019-03-19T00:33:28.014Z,70.30
2019-03-19T00:36:10.740Z,69.80
2019-03-19T00:38:52.204Z,69.60
2019-03-19T00:41:34.929Z,69.70
2019-03-19T00:44:16.970Z,70.00
2019-03-19T00:46:59.852Z,69.80
2019-03-19T00:49:43.433Z,69.20
2019-03-19T00:52:33.239Z,69.00
2019-03-19T00:55:16.151Z,68.90
2019-03-19T00:57:59.872Z,69.20
2019-03-19T01:00:42.328Z,69.50
2019-03-19T01:03:27.624Z,69.40
2019-03-19T01:06:09.843Z,69.90
2019-03-19T01:08:53.136Z,70.40
2019-03-19T01:11:35.519Z,70.90
2019-03-19T01:14:18.574Z,71.30
2019-03-19T01:17:01.199Z,71.60
2019-03-19T01:19:44.405Z,72.00
2019-03-19T01:22:28.550Z,72.40
2019-03-19T01:25:11.386Z,72.70
2019-03-19T01:27:52.819Z,73.00
2019-03-19T01:30:36.287Z,73.40
2019-03-19T01:33:18.050Z,73.50
2019-03-19T01:36:01.212Z,74.30
2019-03-19T01:38:43.372Z,73.70
2019-03-19T01:41:26.878Z,73.80
2019-03-19T01:44:09.396Z,73.90
2019-03-19T01:46:57.921Z,73.70
2019-03-19T01:49:39.323Z,73.50
2019-03-19T01:52:22.060Z,73.60
2019-03-19T01:55:04.636Z,73.70
2019-03-19T01:57:47.145Z,73.70
2019-03-19T02:00:29.308Z,73.60
2019-03-19T02:03:13.138Z,73.50
2019-03-19T02:05:55.522Z,73.60
2019-03-19T02:08:41.703Z,73.40
2019-03-19T02:11:25.945Z,73.00
2019-03-19T02:14:08.527Z,72.70
2019-03-19T02:16:57.050Z,72.70
2019-03-19T02:22:24.803Z,73.00
2019-03-19T02:28:02.400Z,73.10
2019-03-19T02:30:45.892Z,73.40
2019-03-19T02:33:28.627Z,73.70
2019-03-19T02:36:12.467Z,74.00
2019-03-19T02:38:56.951Z,74.10
2019-03-19T02:44:38.223Z,74.30
2019-03-19T02:47:22.078Z,74.60
2019-03-19T02:50:03.794Z,74.70
2019-03-19T02:52:46.477Z,74.90
2019-03-19T02:55:28.778Z,75.00
2019-03-19T02:58:14.677Z,75.10
2019-03-19T03:01:02.284Z,75.10
2019-03-19T03:03:46.443Z,75.10
2019-03-19T03:06:28.181Z,75.20
2019-03-19T03:09:14.295Z,75.30
2019-03-19T03:11:56.571Z,75.30
2019-03-19T03:14:40.522Z,75.20
2019-03-19T03:17:22.464Z,75.00
2019-03-19T03:20:05.936Z,74.90
2019-03-19T03:22:48.432Z,74.60
2019-03-19T03:25:30.978Z,74.40
2019-03-19T03:28:15.706Z,74.40
2019-03-19T03:30:59.802Z,74.20
2019-03-19T03:33:41.634Z,74.30
2019-03-19T03:36:23.841Z,74.30
2019-03-19T03:38:55.254Z,74.50
2019-03-19T03:41:44.290Z,74.60
2019-03-19T03:47:22.811Z,74.30
2019-03-19T03:50:06.214Z,74.10
2019-03-19T03:52:48.533Z,74.10
2019-03-19T03:55:38.765Z,74.50
2019-03-19T03:58:24.360Z,74.10
2019-03-19T04:01:07.296Z,73.70
2019-03-19T04:03:48.982Z,73.80
2019-03-19T04:06:32.399Z,73.90
2019-03-19T04:09:15.089Z,74.10
2019-03-19T04:12:00.676Z,74.20
2019-03-19T04:14:46.800Z,73.80
2019-03-19T04:17:29.748Z,73.50
2019-03-19T04:20:11.735Z,73.10
2019-03-19T04:22:42.156Z,72.80
2019-03-19T04:25:32.109Z,73.00
2019-03-19T04:30:57.807Z,73.60
2019-03-19T04:33:43.814Z,73.40
2019-03-19T04:36:26.486Z,73.20
2019-03-19T04:39:09.426Z,73.40
2019-03-19T04:41:51.697Z,72.70
2019-03-19T04:44:34.519Z,72.60
2019-03-19T04:47:16.354Z,72.60
2019-03-19T04:49:58.754Z,72.50
2019-03-19T04:52:41.045Z,72.40
2019-03-19T04:55:24.492Z,72.10
2019-03-19T04:58:06.753Z,72.40
2019-03-19T05:00:49.623Z,72.10
2019-03-19T05:03:31.433Z,72.30
2019-03-19T05:06:14.635Z,72.10
2019-03-19T05:08:56.587Z,72.40
2019-03-19T05:11:40.529Z,72.90
2019-03-19T05:14:22.486Z,72.60
2019-03-19T05:17:07.147Z,72.70
2019-03-19T05:19:49.024Z,72.60
2019-03-19T05:25:27.373Z,72.40
2019-03-19T05:28:10.362Z,72.20
2019-03-19T05:30:52.994Z,71.90
2019-03-19T05:33:36.913Z,71.60
2019-03-19T05:36:08.541Z,71.60
2019-03-19T05:38:58.022Z,71.60
2019-03-19T05:41:39.901Z,71.40
2019-03-19T05:44:26.538Z,71.60
2019-03-19T05:47:08.382Z,72.10
2019-03-19T05:49:38.579Z,72.70
2019-03-19T05:52:09.981Z,73.30
2019-03-19T05:54:59.041Z,73.30
2019-03-19T06:00:13.928Z,72.90
2019-03-19T06:03:03.183Z,73.20
2019-03-19T06:05:35.772Z,73.00
2019-03-19T06:08:29.054Z,73.30
2019-03-19T06:11:00.824Z,73.20
2019-03-19T06:13:35.303Z,73.10
2019-03-19T06:16:09.879Z,73.20
2019-03-19T06:19:01.835Z,73.50
2019-03-19T06:21:37.998Z,73.50
2019-03-19T06:24:28.799Z,73.30
2019-03-19T06:27:13.707Z,73.10
2019-03-19T06:30:04.261Z,73.10
2019-03-19T06:32:37.403Z,72.70
2019-03-19T06:35:30.184Z,72.60
2019-03-19T06:38:02.060Z,72.90
2019-03-19T06:40:57.564Z,73.20
2019-03-19T06:44:09.959Z,73.50
2019-03-19T06:47:03.861Z,72.80
2019-03-19T06:49:42.171Z,72.70
2019-03-19T06:52:32.826Z,72.50
2019-03-19T06:55:03.662Z,72.80
2019-03-19T06:57:39.345Z,72.60
2019-03-19T07:00:21.796Z,72.20
2019-03-19T07:03:14.228Z,72.50
2019-03-19T07:05:46.174Z,72.40
2019-03-19T07:08:26.661Z,72.50
2019-03-19T07:11:22.341Z,73.10
2019-03-19T07:13:53.743Z,73.20
2019-03-19T07:16:24.296Z,73.00
2019-03-19T07:19:15.631Z,73.20
2019-03-19T07:21:53.959Z,73.30
2019-03-19T07:24:25.654Z,72.50
2019-03-19T07:26:59.897Z,72.20
2019-03-19T07:29:48.854Z,72.60
2019-03-19T07:32:19.676Z,72.90
2019-03-19T07:35:07.500Z,73.60
2019-03-19T07:37:40.588Z,73.10
2019-03-19T07:40:25.639Z,73.10
2019-03-19T07:42:57.790Z,73.60
2019-03-19T07:45:35.079Z,73.70
2019-03-19T07:48:07.694Z,73.30
2019-03-19T07:50:39.469Z,73.00
2019-03-19T07:53:32.617Z,73.10
2019-03-19T07:56:03.805Z,73.20
2019-03-19T07:58:45.388Z,74.00
2019-03-19T08:01:18.337Z,74.40
2019-03-19T08:03:59.576Z,74.60
2019-03-19T08:06:32.923Z,74.50
2019-03-19T08:09:07.820Z,74.80
2019-03-19T08:11:40.239Z,73.60
2019-03-19T08:14:11.706Z,73.50
2019-03-19T08:17:00.849Z,73.30
2019-03-19T08:19:32.039Z,73.20
2019-03-19T08:22:08.176Z,72.60
2019-03-19T08:24:41.686Z,73.00
2019-03-19T08:27:14.240Z,73.10
2019-03-19T08:30:10.297Z,73.70
2019-03-19T08:32:42.400Z,73.30
2019-03-19T08:35:17.091Z,73.20
2019-03-19T08:37:50.385Z,73.10
2019-03-19T08:40:27.291Z,73.00
2019-03-19T08:43:01.529Z,72.40
2019-03-19T08:45:43.247Z,72.80
2019-03-19T08:48:22.400Z,73.10
2019-03-19T08:50:55.231Z,73.50
2019-03-19T08:53:47.639Z,73.00
2019-03-19T08:56:36.780Z,72.50
2019-03-19T08:59:17.573Z,72.40
2019-03-19T09:01:49.344Z,72.80
2019-03-19T09:04:22.042Z,72.70
2019-03-19T09:06:59.498Z,72.50
2019-03-19T09:09:34.680Z,72.50
2019-03-19T09:12:15.018Z,72.40
2019-03-19T09:14:48.325Z,72.20
2019-03-19T09:17:19.536Z,72.60
2019-03-19T09:19:57.244Z,72.40
2019-03-19T09:22:29.937Z,73.00
2019-03-19T09:25:03.520Z,73.50
2019-03-19T09:27:39.056Z,73.70
2019-03-19T09:30:15.119Z,73.50
2019-03-19T09:32:54.082Z,74.20
2019-03-19T09:35:30.689Z,74.10
2019-03-19T09:38:01.616Z,73.90
2019-03-19T09:40:53.828Z,74.00
2019-03-19T09:43:48.154Z,74.20
2019-03-19T09:46:31.717Z,73.60
2019-03-19T09:49:03.136Z,73.60
2019-03-19T09:51:56.558Z,72.00
2019-03-19T09:54:32.315Z,71.70
2019-03-19T09:57:07.832Z,72.50
2019-03-19T09:59:52.408Z,71.80
2019-03-19T10:02:34.066Z,72.80
2019-03-19T10:05:46.757Z,72.20
2019-03-19T10:08:28.538Z,72.10
2019-03-19T10:11:12.185Z,70.70
2019-03-19T10:16:48.795Z,68.90
2019-03-19T10:22:47.117Z,68.10
2019-03-19T10:25:38.055Z,68.30
2019-03-19T10:28:20.441Z,67.60
2019-03-19T10:30:51.353Z,67.20
2019-03-19T10:39:49.691Z,65.60
2019-03-19T10:45:38.535Z,64.40
2019-03-19T10:48:11.506Z,62.50
2019-03-19T10:50:42.446Z,62.40
2019-03-19T10:53:16.057Z,60.90
2019-03-19T10:55:46.792Z,62.30
2019-03-19T10:58:20.918Z,61.30
2019-03-19T11:01:10.796Z,60.60
2019-03-19T11:03:48.449Z,61.40
2019-03-19T11:07:07.982Z,59.20
2019-03-19T11:12:34.785Z,57.70
2019-03-19T11:18:21.627Z,56.00
2019-03-19T11:20:53.784Z,55.40
2019-03-19T11:23:30.130Z,56.40
2019-03-19T11:26:18.868Z,56.10
2019-03-19T11:29:03.801Z,56.10
2019-03-19T11:37:40.734Z,54.10
2019-03-19T11:40:31.137Z,54.10
2019-03-19T11:43:01.200Z,54.60
2019-03-19T11:45:48.950Z,53.80
2019-03-19T11:48:35.062Z,53.20
2019-03-19T11:51:06.740Z,53.00
2019-03-19T11:53:40.750Z,51.80
2019-03-19T11:56:33.582Z,52.10
2019-03-19T11:59:32.851Z,53.00
2019-03-19T12:02:26.245Z,52.80
2019-03-19T12:05:06.831Z,54.20
2019-03-19T12:07:52.283Z,53.60
2019-03-19T12:10:31.957Z,53.70
2019-03-19T12:13:02.624Z,53.20
2019-03-19T12:16:01.230Z,53.80
2019-03-19T12:18:43.106Z,53.30
2019-03-19T12:21:16.739Z,53.90
2019-03-19T12:23:59.897Z,54.40
2019-03-19T12:26:28.345Z,54.70
2019-03-19T12:29:20.491Z,55.20
2019-03-19T12:31:51.959Z,54.90
2019-03-19T12:34:42.308Z,55.70
2019-03-19T12:37:18.790Z,54.70
2019-03-19T12:39:51.832Z,54.40
2019-03-19T12:42:26.831Z,54.30
2019-03-19T12:44:59.304Z,55.90
2019-03-19T12:47:31.922Z,54.90
2019-03-19T12:50:03.198Z,54.30
2019-03-19T12:52:44.749Z,53.80
2019-03-19T12:55:16.576Z,54.30
2019-03-19T12:57:52.557Z,53.80
2019-03-19T13:00:42.376Z,54.00
2019-03-19T13:03:14.841Z,53.40
2019-03-19T13:06:05.030Z,52.80
2019-03-19T13:09:01.382Z,52.20
2019-03-19T13:11:32.764Z,51.70
2019-03-19T13:14:07.642Z,52.40
2019-03-19T13:16:42.924Z,53.20
2019-03-19T13:19:14.434Z,52.00
2019-03-19T13:21:53.269Z,50.90
2019-03-19T13:24:25.918Z,49.90
2019-03-19T13:27:03.009Z,49.00
2019-03-19T13:29:53.703Z,50.00
2019-03-19T13:32:42.487Z,51.70
2019-03-19T13:35:34.174Z,51.20
2019-03-19T13:38:09.017Z,51.30
2019-03-19T13:40:48.848Z,49.90
2019-03-19T13:43:28.446Z,50.90
2019-03-19T13:46:13.398Z,49.10
2019-03-19T13:48:45.820Z,49.70
2019-03-19T13:51:35.931Z,49.60
2019-03-19T13:54:28.518Z,48.90
2019-03-19T13:57:10.748Z,48.60
2019-03-19T13:59:42.567Z,47.40
2019-03-19T14:02:32.824Z,49.00
2019-03-19T14:05:07.069Z,47.80
2019-03-19T14:07:57.688Z,48.90
2019-03-19T14:10:50.859Z,46.30
2019-03-19T14:13:31.836Z,46.60
2019-03-19T14:16:19.526Z,46.50
2019-03-19T14:19:16.304Z,47.20
2019-03-19T14:21:51.451Z,43.60
2019-03-19T14:24:47.073Z,44.80
2019-03-19T14:27:39.720Z,45.00
2019-03-19T14:30:35.238Z,39.30
2019-03-19T14:33:15.516Z,40.00
2019-03-19T14:36:01.056Z,41.60
2019-03-19T14:38:34.175Z,42.00
2019-03-19T14:41:28.987Z,40.90
2019-03-19T14:44:04.290Z,41.60
2019-03-19T14:46:41.768Z,40.30
2019-03-19T14:49:31.529Z,38.80
2019-03-19T14:52:46.310Z,39.50
2019-03-19T14:58:46.077Z,38.80
2019-03-19T15:01:33.388Z,38.30
2019-03-19T15:07:31.588Z,37.60
2019-03-19T15:10:21.337Z,37.20
2019-03-19T15:13:22.446Z,37.20
2019-03-19T15:19:05.387Z,36.70
2019-03-19T15:21:56.302Z,36.60
2019-03-19T15:24:47.416Z,36.10
2019-03-19T15:27:21.426Z,35.30
2019-03-19T15:30:19.404Z,35.10
2019-03-19T15:33:16.539Z,36.10
2019-03-19T15:35:58.826Z,37.90
2019-03-19T15:38:36.308Z,35.10
2019-03-19T15:41:17.516Z,37.40
2019-03-19T15:44:25.191Z,38.80
2019-03-19T15:47:10.155Z,38.80
2019-03-19T15:49:43.796Z,38.50
2019-03-19T15:52:26.982Z,36.30
2019-03-19T15:55:32.577Z,36.00
2019-03-19T15:58:26.016Z,37.60
2019-03-19T16:01:26.285Z,39.20
2019-03-19T16:04:25.131Z,38.70
2019-03-19T16:07:17.910Z,39.30
2019-03-19T16:10:10.304Z,37.90
2019-03-19T16:12:42.879Z,37.60
2019-03-19T16:15:41.180Z,37.50
2019-03-19T16:18:17.395Z,37.10
2019-03-19T16:20:48.606Z,37.10
2019-03-19T16:23:21.071Z,36.10
2019-03-19T16:25:53.711Z,36.80
2019-03-19T16:31:33.829Z,37.70
2019-03-19T16:34:10.641Z,38.90
2019-03-19T16:37:01.599Z,37.50
2019-03-19T16:39:41.967Z,36.90
2019-03-19T16:42:27.198Z,36.90
2019-03-19T16:45:36.278Z,37.90
2019-03-19T16:51:00.147Z,39.70
2019-03-19T16:53:32.940Z,40.50
2019-03-19T16:59:15.096Z,39.10
2019-03-19T17:02:01.457Z,40.00
2019-03-19T17:04:51.863Z,39.40
2019-03-19T17:10:46.949Z,42.20
2019-03-19T17:13:29.581Z,42.70
2019-03-19T17:16:03.294Z,43.80
2019-03-19T17:18:54.136Z,45.10
2019-03-19T17:21:46.910Z,45.40
2019-03-19T17:24:23.483Z,45.30
2019-03-19T17:27:03.398Z,46.20
2019-03-19T17:29:55.871Z,47.00
2019-03-19T17:32:50.737Z,47.20
2019-03-19T17:35:27.772Z,48.10
2019-03-19T17:38:24.363Z,48.30
2019-03-19T17:41:00.404Z,49.40
2019-03-19T17:43:52.119Z,49.80
2019-03-19T17:46:27.015Z,49.70
2019-03-19T17:48:58.316Z,49.80
2019-03-19T17:51:39.451Z,49.90
2019-03-19T17:54:23.680Z,50.20
2019-03-19T17:57:00.526Z,50.70
2019-03-19T17:59:52.602Z,50.60
2019-03-19T18:02:37.726Z,50.10
2019-03-19T18:05:23.865Z,50.40
2019-03-19T18:08:00.683Z,51.00
2019-03-19T18:10:52.793Z,51.30
2019-03-19T18:19:17.487Z,54.00
2019-03-19T18:21:52.943Z,54.00
2019-03-19T18:24:43.883Z,54.00
2019-03-19T18:27:17.961Z,54.10
2019-03-19T18:33:16.999Z,53.80
2019-03-19T18:36:14.131Z,54.50
2019-03-19T18:42:07.798Z,54.20
2019-03-19T18:47:51.850Z,55.30
2019-03-19T18:50:36.679Z,55.30
2019-03-19T18:53:10.925Z,55.60
2019-03-19T18:59:13.829Z,57.00
2019-03-19T19:08:05.305Z,58.20
2019-03-19T19:11:36.183Z,58.20
2019-03-19T19:14:31.617Z,58.60
2019-03-19T19:17:14.713Z,58.60
2019-03-19T19:23:10.748Z,58.50
2019-03-19T19:28:38.547Z,58.90
2019-03-19T19:31:22.062Z,58.90
2019-03-19T19:34:06.014Z,58.70
2019-03-19T19:36:57.795Z,59.20
2019-03-19T19:39:41.355Z,59.40
2019-03-19T19:42:28.049Z,59.40
2019-03-19T19:45:10.545Z,60.10
2019-03-19T19:47:55.192Z,60.80
2019-03-19T19:50:38.311Z,61.10
2019-03-19T19:59:04.020Z,61.50
2019-03-19T20:01:52.034Z,61.90
2019-03-19T20:10:22.949Z,62.30
2019-03-19T20:13:18.461Z,62.70
2019-03-19T20:16:09.751Z,63.00
2019-03-19T20:18:42.686Z,63.00
2019-03-19T20:21:37.468Z,62.90
2019-03-19T20:27:28.087Z,62.90
2019-03-19T20:30:01.458Z,62.90
2019-03-19T20:32:55.133Z,62.70
2019-03-19T20:41:23.356Z,62.30
2019-03-19T20:44:32.319Z,62.00
2019-03-19T20:53:11.371Z,62.30
2019-03-19T20:58:43.801Z,63.30
2019-03-19T21:01:12.791Z,63.70
2019-03-19T21:03:44.761Z,63.90
2019-03-19T21:06:35.094Z,64.00
2019-03-19T21:12:10.554Z,64.50
2019-03-19T21:14:57.633Z,64.80
2019-03-19T21:17:41.846Z,65.80
2019-03-19T21:23:29.501Z,65.00
2019-03-19T21:28:56.914Z,65.30
2019-03-19T21:31:46.213Z,66.00
2019-03-19T21:34:30.549Z,66.10
2019-03-19T21:37:02.029Z,66.40
2019-03-19T21:39:51.609Z,66.20
2019-03-19T21:45:28.609Z,66.00
2019-03-19T21:50:55.030Z,65.90
2019-03-19T21:53:38.219Z,65.90
2019-03-19T21:56:10.165Z,66.10
2019-03-19T21:59:00.758Z,66.20
2019-03-19T22:01:41.948Z,65.80
2019-03-19T22:04:15.099Z,65.50
2019-03-19T22:07:05.410Z,65.60
2019-03-19T22:15:25.742Z,65.80
2019-03-19T22:18:09.619Z,66.20
2019-03-19T22:20:54.093Z,66.10
2019-03-19T22:26:25.800Z,66.30
2019-03-19T22:31:51.531Z,66.40
2019-03-19T22:34:35.137Z,66.20
2019-03-19T22:37:16.257Z,66.10
2019-03-19T22:39:59.616Z,66.30
2019-03-19T22:42:42.644Z,66.60
2019-03-19T22:45:26.054Z,66.80
2019-03-19T22:48:10.910Z,66.80
2019-03-19T22:50:54.398Z,66.80
2019-03-19T22:53:35.771Z,66.80
2019-03-19T22:56:20.625Z,67.20
2019-03-19T22:59:03.017Z,67.20
2019-03-19T23:01:55.198Z,67.30
2019-03-19T23:04:27.586Z,67.40
2019-03-19T23:07:17.779Z,67.40
2019-03-19T23:10:07.496Z,67.60
2019-03-19T23:12:38.795Z,67.70
2019-03-19T23:15:29.394Z,67.80
2019-03-19T23:18:18.687Z,67.80
2019-03-19T23:21:00.850Z,67.70
2019-03-19T23:23:42.963Z,67.60
2019-03-19T23:26:24.487Z,67.80
2019-03-19T23:29:10.352Z,67.70
2019-03-19T23:31:51.712Z,67.80
2019-03-19T23:34:38.790Z,67.70
2019-03-19T23:40:26.290Z,67.60
2019-03-19T23:43:08.666Z,67.60
2019-03-19T23:45:52.274Z,67.50
2019-03-19T23:48:34.560Z,67.40
2019-03-19T23:51:20.379Z,67.40
2019-03-19T23:54:03.543Z,67.90
2019-03-19T23:56:47.859Z,68.20
2019-03-19T23:59:32.453Z,68.20
